createdAt,value
2018-02-21T00:01:35.193Z,5.60
2018-02-21T00:04:06.322Z,5.60
2018-02-21T00:06:38.080Z,5.60
2018-02-21T00:09:13.975Z,5.60
2018-02-21T00:11:42.949Z,5.60
2018-02-21T00:14:19.133Z,5.60
2018-02-21T00:16:50.416Z,5.60
2018-02-21T00:19:25.993Z,5.70
2018-02-21T00:22:02.595Z,5.70
2018-02-21T00:24:35.239Z,5.70
2018-02-21T00:27:08.773Z,5.70
2018-02-21T00:29:43.475Z,5.60
2018-02-21T00:32:12.747Z,5.60
2018-02-21T00:34:46.151Z,5.50
2018-02-21T00:37:16.304Z,5.50
2018-02-21T00:39:47.938Z,5.40
2018-02-21T00:42:17.469Z,5.40
2018-02-21T00:44:48.800Z,5.30
2018-02-21T00:47:17.317Z,5.30
2018-02-21T00:49:47.510Z,5.40
2018-02-21T00:52:20.269Z,5.40
2018-02-21T00:54:53.831Z,5.40
2018-02-21T00:57:29.171Z,5.40
2018-02-21T01:00:04.040Z,5.40
2018-02-21T01:02:35.623Z,5.40
2018-02-21T01:05:26.301Z,5.30
2018-02-21T01:07:55.617Z,5.30
2018-02-21T01:10:23.885Z,5.30
2018-02-21T01:12:56.205Z,5.30
2018-02-21T01:15:31.114Z,5.30
2018-02-21T01:18:07.903Z,5.20
2018-02-21T01:20:39.507Z,5.20
2018-02-21T01:23:14.698Z,5.30
2018-02-21T01:25:43.753Z,5.30
2018-02-21T01:28:12.478Z,5.30
2018-02-21T01:30:44.190Z,5.20
2018-02-21T01:33:13.004Z,5.10
2018-02-21T01:35:43.209Z,5.00
2018-02-21T01:38:16.442Z,5.00
2018-02-21T01:40:49.628Z,5.00
2018-02-21T01:43:24.065Z,5.00
2018-02-21T01:46:02.389Z,5.00
2018-02-21T01:48:33.693Z,5.00
2018-02-21T01:51:15.308Z,5.00
2018-02-21T01:53:44.369Z,5.00
2018-02-21T01:56:12.873Z,5.00
2018-02-21T01:58:41.440Z,5.00
2018-02-21T02:01:10.519Z,5.00
2018-02-21T02:03:39.879Z,5.00
2018-02-21T02:06:08.854Z,5.00
2018-02-21T02:08:40.751Z,5.00
2018-02-21T02:11:09.777Z,5.00
2018-02-21T02:13:38.400Z,4.90
2018-02-21T02:16:06.698Z,4.90
2018-02-21T02:18:36.889Z,5.00
2018-02-21T02:21:08.809Z,4.90
2018-02-21T02:23:39.169Z,4.90
2018-02-21T02:26:13.600Z,4.90
2018-02-21T02:28:44.590Z,4.90
2018-02-21T02:31:13.242Z,4.90
2018-02-21T02:33:41.557Z,4.80
2018-02-21T02:36:09.889Z,4.70
2018-02-21T02:38:40.137Z,4.70
2018-02-21T02:41:09.917Z,4.60
2018-02-21T02:43:38.217Z,4.50
2018-02-21T02:46:08.900Z,4.40
2018-02-21T02:48:37.511Z,4.20
2018-02-21T02:51:05.940Z,4.00
2018-02-21T02:53:36.590Z,3.80
2018-02-21T02:56:10.106Z,3.80
2018-02-21T02:58:44.681Z,3.80
2018-02-21T03:01:20.496Z,3.70
2018-02-21T03:03:55.286Z,3.70
2018-02-21T03:06:29.432Z,3.60
2018-02-21T03:09:01.289Z,3.60
2018-02-21T03:11:30.547Z,3.60
2018-02-21T03:13:59.973Z,3.60
2018-02-21T03:16:28.251Z,3.50
2018-02-21T03:18:57.286Z,3.20
2018-02-21T03:21:27.897Z,3.20
2018-02-21T03:24:02.368Z,3.20
2018-02-21T03:26:36.710Z,3.20
2018-02-21T03:29:06.846Z,3.10
2018-02-21T03:31:35.139Z,3.00
2018-02-21T03:34:03.504Z,3.00
2018-02-21T03:36:33.717Z,3.00
2018-02-21T03:39:02.439Z,3.00
2018-02-21T03:41:34.469Z,2.90
2018-02-21T03:44:06.094Z,2.90
2018-02-21T03:46:34.375Z,3.00
2018-02-21T03:49:02.685Z,2.90
2018-02-21T03:51:52.257Z,2.80
2018-02-21T03:54:21.024Z,2.90
2018-02-21T03:56:49.328Z,2.90
2018-02-21T03:59:21.086Z,2.90
2018-02-21T04:01:50.190Z,2.90
2018-02-21T04:04:18.719Z,2.70
2018-02-21T04:06:49.041Z,2.70
2018-02-21T04:09:19.000Z,2.60
2018-02-21T04:11:55.948Z,2.60
2018-02-21T04:14:26.237Z,2.60
2018-02-21T04:16:56.283Z,2.50
2018-02-21T04:19:26.167Z,2.40
2018-02-21T04:22:06.955Z,2.40
2018-02-21T04:24:40.609Z,2.20
2018-02-21T04:27:15.099Z,2.30
2018-02-21T04:29:43.901Z,2.20
2018-02-21T04:32:12.420Z,2.10
2018-02-21T04:34:40.730Z,2.00
2018-02-21T04:37:18.408Z,2.00
2018-02-21T04:39:46.725Z,1.80
2018-02-21T04:42:15.055Z,1.80
2018-02-21T04:44:43.370Z,1.60
2018-02-21T04:47:13.226Z,1.60
2018-02-21T04:49:46.279Z,1.60
2018-02-21T04:52:32.805Z,1.50
2018-02-21T04:55:01.726Z,1.50
2018-02-21T04:57:31.764Z,1.40
2018-02-21T05:00:08.629Z,1.30
2018-02-21T05:02:37.176Z,1.20
2018-02-21T05:05:07.940Z,1.30
2018-02-21T05:07:37.861Z,1.40
2018-02-21T05:10:10.990Z,1.40
2018-02-21T05:12:45.013Z,1.00
2018-02-21T05:15:19.975Z,1.00
2018-02-21T05:17:48.974Z,0.90
2018-02-21T05:20:22.760Z,0.80
2018-02-21T05:23:08.178Z,0.60
2018-02-21T05:25:37.332Z,0.60
2018-02-21T05:28:07.689Z,0.50
2018-02-21T05:30:36.780Z,0.40
2018-02-21T05:33:06.619Z,0.50
2018-02-21T05:35:35.486Z,0.40
2018-02-21T05:38:18.506Z,0.30
2018-02-21T05:40:48.487Z,0.20
2018-02-21T05:43:16.759Z,0.10
2018-02-21T05:45:45.489Z,0.00
2018-02-21T05:48:18.757Z,-0.10
2018-02-21T05:50:54.246Z,-0.20
2018-02-21T05:53:40.033Z,-0.20
2018-02-21T05:56:08.393Z,-0.20
2018-02-21T05:58:37.102Z,-0.20
2018-02-21T06:01:11.913Z,-0.20
2018-02-21T06:03:45.527Z,-0.30
2018-02-21T06:06:18.771Z,-0.30
2018-02-21T06:09:00.082Z,-0.40
2018-02-21T06:11:32.859Z,-0.40
2018-02-21T06:14:03.116Z,-0.50
2018-02-21T06:16:39.685Z,-0.50
2018-02-21T06:19:14.574Z,-0.60
2018-02-21T06:21:47.547Z,-0.60
2018-02-21T06:24:20.362Z,-0.60
2018-02-21T06:26:54.842Z,-0.60
2018-02-21T06:29:27.451Z,-0.70
2018-02-21T06:31:57.667Z,-0.70
2018-02-21T06:34:27.714Z,-0.80
2018-02-21T06:36:56.379Z,-0.90
2018-02-21T06:39:27.718Z,-0.80
2018-02-21T06:41:56.508Z,-0.90
2018-02-21T06:44:26.530Z,-0.90
2018-02-21T06:47:01.493Z,-1.00
2018-02-21T06:49:34.178Z,-1.00
2018-02-21T06:52:07.820Z,-1.00
2018-02-21T06:54:50.169Z,-1.00
2018-02-21T06:57:18.603Z,-1.00
2018-02-21T06:59:52.563Z,-1.10
2018-02-21T07:02:34.578Z,-1.10
2018-02-21T07:05:03.793Z,-1.10
2018-02-21T07:07:35.208Z,-1.20
2018-02-21T07:10:12.336Z,-1.20
2018-02-21T07:12:45.340Z,-1.20
2018-02-21T07:15:13.676Z,-1.20
2018-02-21T07:17:43.886Z,-1.20
2018-02-21T07:20:12.620Z,-1.20
2018-02-21T07:22:40.944Z,-1.20
2018-02-21T07:25:47.285Z,-1.20
2018-02-21T07:28:15.594Z,-1.00
2018-02-21T07:30:50.152Z,-0.90
2018-02-21T07:33:22.863Z,-0.80
2018-02-21T07:35:55.008Z,-0.70
2018-02-21T07:38:23.291Z,-0.70
2018-02-21T07:40:52.771Z,-0.70
2018-02-21T07:43:21.578Z,-0.70
2018-02-21T07:45:51.123Z,-0.60
2018-02-21T07:48:20.706Z,-0.50
2018-02-21T07:50:52.706Z,-0.50
2018-02-21T07:53:24.142Z,-0.30
2018-02-21T07:56:44.217Z,-0.30
2018-02-21T07:59:13.062Z,-0.20
2018-02-21T08:01:41.912Z,-0.10
2018-02-21T08:04:10.522Z,0.00
2018-02-21T08:06:38.794Z,0.10
2018-02-21T08:09:07.075Z,0.40
2018-02-21T08:11:36.466Z,0.50
2018-02-21T08:14:06.735Z,1.20
2018-02-21T08:16:37.730Z,1.10
2018-02-21T08:19:07.800Z,1.30
2018-02-21T08:21:37.337Z,1.30
2018-02-21T08:24:08.551Z,1.40
2018-02-21T08:26:37.666Z,1.50
2018-02-21T08:29:05.964Z,1.60
2018-02-21T08:31:39.092Z,1.70
2018-02-21T08:34:08.812Z,1.90
2018-02-21T08:36:49.590Z,2.10
2018-02-21T08:39:21.997Z,2.20
2018-02-21T08:41:53.858Z,2.60
2018-02-21T08:44:24.386Z,2.60
2018-02-21T08:46:53.994Z,2.80
2018-02-21T08:49:23.229Z,3.00
2018-02-21T08:51:52.060Z,2.90
2018-02-21T08:54:22.841Z,3.30
2018-02-21T08:57:29.379Z,3.30
2018-02-21T09:00:01.769Z,3.30
2018-02-21T09:02:30.428Z,3.50
2018-02-21T09:05:02.232Z,3.60
2018-02-21T09:07:30.654Z,3.80
2018-02-21T09:10:02.659Z,3.90
2018-02-21T09:12:31.860Z,4.00
2018-02-21T09:15:02.585Z,4.10
2018-02-21T09:17:34.769Z,4.40
2018-02-21T09:20:11.564Z,4.60
2018-02-21T09:22:46.209Z,4.80
2018-02-21T09:25:19.319Z,4.80
2018-02-21T09:28:04.540Z,4.90
2018-02-21T09:30:32.873Z,4.80
2018-02-21T09:33:07.113Z,5.00
2018-02-21T09:35:40.998Z,5.00
2018-02-21T09:38:10.892Z,4.80
2018-02-21T09:40:39.168Z,4.90
2018-02-21T09:43:07.941Z,5.20
2018-02-21T09:45:36.228Z,5.10
2018-02-21T09:48:04.815Z,5.00
2018-02-21T09:50:34.892Z,5.10
2018-02-21T09:53:10.996Z,5.00
2018-02-21T09:55:46.932Z,5.00
2018-02-21T09:58:20.480Z,5.10
2018-02-21T10:00:56.336Z,5.30
2018-02-21T10:03:32.173Z,5.30
2018-02-21T10:06:00.768Z,5.40
2018-02-21T10:08:29.833Z,5.60
2018-02-21T10:10:58.646Z,5.60
2018-02-21T10:13:27.536Z,5.90
2018-02-21T10:15:55.820Z,6.20
2018-02-21T10:18:27.828Z,6.50
2018-02-21T10:21:00.877Z,6.50
2018-02-21T10:23:33.479Z,6.70
2018-02-21T10:26:01.758Z,6.90
2018-02-21T10:28:30.360Z,6.80
2018-02-21T10:30:59.237Z,6.70
2018-02-21T10:33:30.242Z,6.50
2018-02-21T10:36:00.219Z,6.60
2018-02-21T10:38:30.472Z,6.80
2018-02-21T10:40:58.902Z,6.90
2018-02-21T10:43:27.620Z,6.80
2018-02-21T10:45:55.889Z,6.70
2018-02-21T10:48:24.169Z,6.70
2018-02-21T10:50:56.939Z,6.80
2018-02-21T10:53:25.260Z,6.80
2018-02-21T10:55:53.553Z,7.00
2018-02-21T10:58:22.987Z,7.20
2018-02-21T11:00:57.915Z,7.40
2018-02-21T11:03:26.432Z,7.40
2018-02-21T11:05:57.667Z,7.40
2018-02-21T11:08:29.471Z,7.40
2018-02-21T11:11:02.394Z,7.50
2018-02-21T11:14:12.950Z,7.50
2018-02-21T11:16:48.522Z,7.40
2018-02-21T11:19:21.152Z,7.40
2018-02-21T11:21:50.645Z,7.30
2018-02-21T11:24:18.910Z,7.30
2018-02-21T11:26:48.353Z,7.30
2018-02-21T11:29:16.651Z,7.30
2018-02-21T11:31:45.031Z,7.30
2018-02-21T11:34:13.336Z,7.30
2018-02-21T11:36:41.624Z,7.30
2018-02-21T11:39:11.114Z,7.50
2018-02-21T11:41:39.431Z,7.50
2018-02-21T11:44:07.778Z,7.40
2018-02-21T11:46:38.922Z,7.60
2018-02-21T11:49:14.778Z,7.60
2018-02-21T11:51:43.652Z,7.30
2018-02-21T11:54:11.958Z,7.30
2018-02-21T11:56:41.120Z,7.60
2018-02-21T11:59:11.165Z,7.60
2018-02-21T12:01:39.499Z,7.60
2018-02-21T12:04:09.927Z,7.70
2018-02-21T12:06:45.838Z,7.60
2018-02-21T12:09:18.734Z,7.70
2018-02-21T12:11:48.724Z,7.80
2018-02-21T12:14:20.037Z,7.70
2018-02-21T12:16:48.418Z,7.70
2018-02-21T12:19:16.710Z,7.60
2018-02-21T12:21:45.535Z,7.50
2018-02-21T12:24:21.694Z,7.50
2018-02-21T12:26:50.427Z,7.40
2018-02-21T12:29:19.588Z,7.40
2018-02-21T12:31:58.984Z,7.50
2018-02-21T12:34:28.275Z,7.50
2018-02-21T12:36:59.401Z,7.70
2018-02-21T12:39:36.299Z,7.70
2018-02-21T12:42:05.108Z,7.70
2018-02-21T12:45:09.147Z,7.90
2018-02-21T12:47:37.543Z,7.90
2018-02-21T12:50:06.796Z,7.90
2018-02-21T12:52:35.440Z,7.80
2018-02-21T12:55:10.548Z,7.70
2018-02-21T12:57:43.832Z,7.60
2018-02-21T13:00:13.861Z,7.70
2018-02-21T13:02:42.840Z,7.80
2018-02-21T13:05:11.165Z,7.70
2018-02-21T13:07:39.566Z,7.70
2018-02-21T13:10:08.770Z,7.50
2018-02-21T13:12:43.161Z,7.50
2018-02-21T13:15:12.877Z,7.40
2018-02-21T13:17:47.189Z,7.60
2018-02-21T13:20:16.610Z,7.50
2018-02-21T13:22:45.678Z,7.50
2018-02-21T13:25:15.289Z,7.60
2018-02-21T13:27:43.874Z,7.70
2018-02-21T13:30:47.636Z,7.70
2018-02-21T13:33:16.447Z,7.70
2018-02-21T13:35:45.052Z,7.60
2018-02-21T13:38:14.821Z,7.80
2018-02-21T13:40:47.620Z,7.80
2018-02-21T13:43:22.459Z,7.70
2018-02-21T13:45:51.067Z,7.60
2018-02-21T13:48:19.874Z,7.70
2018-02-21T13:50:49.108Z,7.90
2018-02-21T13:53:17.391Z,7.70
2018-02-21T13:55:46.172Z,7.70
2018-02-21T13:58:17.816Z,7.70
2018-02-21T14:00:51.627Z,7.80
2018-02-21T14:03:23.769Z,7.80
2018-02-21T14:05:55.618Z,7.70
2018-02-21T14:08:25.352Z,7.70
2018-02-21T14:10:56.051Z,7.50
2018-02-21T14:13:26.344Z,7.50
2018-02-21T14:16:24.995Z,7.30
2018-02-21T14:18:53.612Z,7.30
2018-02-21T14:21:22.808Z,7.20
2018-02-21T14:23:51.107Z,7.20
2018-02-21T14:26:21.234Z,7.30
2018-02-21T14:28:51.660Z,7.30
2018-02-21T14:31:23.666Z,7.40
2018-02-21T14:33:54.159Z,7.50
2018-02-21T14:36:24.228Z,7.60
2018-02-21T14:38:52.799Z,7.60
2018-02-21T14:41:22.056Z,7.50
2018-02-21T14:43:51.832Z,7.50
2018-02-21T14:46:28.194Z,7.40
2018-02-21T14:48:56.894Z,7.50
2018-02-21T14:51:32.527Z,7.50
2018-02-21T14:54:03.715Z,7.50
2018-02-21T14:56:38.692Z,7.50
2018-02-21T14:59:09.253Z,7.50
2018-02-21T15:01:58.758Z,7.50
2018-02-21T15:04:28.178Z,7.60
2018-02-21T15:06:59.435Z,7.80
2018-02-21T15:09:31.141Z,7.90
2018-02-21T15:12:01.892Z,7.90
2018-02-21T15:14:31.866Z,7.90
2018-02-21T15:17:00.608Z,7.80
2018-02-21T15:19:30.198Z,7.60
2018-02-21T15:21:59.503Z,7.60
2018-02-21T15:24:32.380Z,7.40
2018-02-21T15:27:08.863Z,7.50
2018-02-21T15:29:42.309Z,7.50
2018-02-21T15:32:12.474Z,7.50
2018-02-21T15:34:42.245Z,7.40
2018-02-21T15:37:12.992Z,7.30
2018-02-21T15:39:41.813Z,7.20
2018-02-21T15:42:10.592Z,7.20
2018-02-21T15:44:39.699Z,7.20
2018-02-21T15:47:22.046Z,7.20
2018-02-21T15:49:50.797Z,7.10
2018-02-21T15:52:20.584Z,7.00
2018-02-21T15:54:48.927Z,6.90
2018-02-21T15:57:17.471Z,6.90
2018-02-21T15:59:49.023Z,6.90
2018-02-21T16:02:29.945Z,6.90
2018-02-21T16:04:58.756Z,6.70
2018-02-21T16:07:27.561Z,6.70
2018-02-21T16:09:58.796Z,6.60
2018-02-21T16:12:29.292Z,6.50
2018-02-21T16:15:04.565Z,6.50
2018-02-21T16:20:56.023Z,6.50
2018-02-21T16:23:24.710Z,6.50
2018-02-21T16:25:54.404Z,6.40
2018-02-21T16:28:30.544Z,6.40
2018-02-21T16:31:01.210Z,6.40
2018-02-21T16:33:33.327Z,6.40
2018-02-21T16:36:02.486Z,6.30
2018-02-21T16:38:31.200Z,6.40
2018-02-21T16:40:59.856Z,6.30
2018-02-21T16:43:29.233Z,6.30
2018-02-21T16:46:00.985Z,6.20
2018-02-21T16:48:53.118Z,6.30
2018-02-21T16:51:21.506Z,6.30
2018-02-21T16:53:56.318Z,6.20
2018-02-21T16:56:24.614Z,6.20
2018-02-21T16:58:53.808Z,6.10
2018-02-21T17:01:27.287Z,6.10
2018-02-21T17:04:18.060Z,6.00
2018-02-21T17:06:48.051Z,6.00
2018-02-21T17:09:17.727Z,6.10
2018-02-21T17:11:49.369Z,6.10
2018-02-21T17:14:22.068Z,6.00
2018-02-21T17:16:51.448Z,6.00
2018-02-21T17:19:42.504Z,5.90
2018-02-21T17:22:10.820Z,6.00
2018-02-21T17:24:39.611Z,5.90
2018-02-21T17:27:13.309Z,5.90
2018-02-21T17:29:48.633Z,5.90
2018-02-21T17:32:23.804Z,6.00
2018-02-21T17:35:13.935Z,6.00
2018-02-21T17:37:43.190Z,6.00
2018-02-21T17:40:11.694Z,5.90
2018-02-21T17:42:41.346Z,5.80
2018-02-21T17:45:14.620Z,5.80
2018-02-21T17:47:45.567Z,5.80
2018-02-21T17:50:39.518Z,5.90
2018-02-21T17:53:09.231Z,5.80
2018-02-21T17:55:38.116Z,5.90
2018-02-21T17:58:06.839Z,5.80
2018-02-21T18:00:38.852Z,5.60
2018-02-21T18:03:17.706Z,5.60
2018-02-21T18:05:48.448Z,5.50
2018-02-21T18:08:19.210Z,5.50
2018-02-21T18:10:47.619Z,5.50
2018-02-21T18:13:16.003Z,5.40
2018-02-21T18:15:44.752Z,5.30
2018-02-21T18:18:13.795Z,5.30
2018-02-21T18:21:04.592Z,5.30
2018-02-21T18:23:32.887Z,5.20
2018-02-21T18:26:02.079Z,5.00
2018-02-21T18:28:30.729Z,4.90
2018-02-21T18:30:59.049Z,4.80
2018-02-21T18:33:32.459Z,4.90
2018-02-21T18:39:25.363Z,5.10
2018-02-21T18:41:53.665Z,5.20
2018-02-21T18:44:23.120Z,5.20
2018-02-21T18:46:52.606Z,5.20
2018-02-21T18:49:21.361Z,5.10
2018-02-21T18:51:51.184Z,5.10
2018-02-21T18:54:19.907Z,5.10
2018-02-21T18:56:48.875Z,5.10
2018-02-21T18:59:18.618Z,5.10
2018-02-21T19:01:46.896Z,5.10
2018-02-21T19:04:17.000Z,5.10
2018-02-21T19:06:46.587Z,5.10
2018-02-21T19:09:14.901Z,5.10
2018-02-21T19:11:43.578Z,5.10
2018-02-21T19:14:12.510Z,5.20
2018-02-21T19:16:41.734Z,5.20
2018-02-21T19:19:12.803Z,5.20
2018-02-21T19:21:42.454Z,5.10
2018-02-21T19:24:10.963Z,5.10
2018-02-21T19:26:39.307Z,5.00
2018-02-21T19:29:08.142Z,5.00
2018-02-21T19:31:38.903Z,5.10
2018-02-21T19:34:07.982Z,5.10
2018-02-21T19:36:38.747Z,5.10
2018-02-21T19:39:07.577Z,5.10
2018-02-21T19:41:36.251Z,5.10
2018-02-21T19:44:05.069Z,5.10
2018-02-21T19:46:37.752Z,5.10
2018-02-21T19:49:06.942Z,5.10
2018-02-21T19:51:35.307Z,5.10
2018-02-21T19:54:03.616Z,5.10
2018-02-21T19:56:32.519Z,5.10
2018-02-21T19:59:00.839Z,5.00
2018-02-21T20:01:31.323Z,5.00
2018-02-21T20:04:03.355Z,5.00
2018-02-21T20:06:37.015Z,5.00
2018-02-21T20:09:07.060Z,5.10
2018-02-21T20:11:35.709Z,5.10
2018-02-21T20:14:04.424Z,5.00
2018-02-21T20:16:32.703Z,5.00
2018-02-21T20:19:02.337Z,5.00
2018-02-21T20:21:45.877Z,4.90
2018-02-21T20:24:14.190Z,4.90
2018-02-21T20:26:43.140Z,4.90
2018-02-21T20:29:19.317Z,4.90
2018-02-21T20:31:54.708Z,4.90
2018-02-21T20:34:23.066Z,5.00
2018-02-21T20:36:52.133Z,4.90
2018-02-21T20:39:20.436Z,4.90
2018-02-21T20:41:49.742Z,5.00
2018-02-21T20:44:19.695Z,5.00
2018-02-21T20:46:52.850Z,5.00
2018-02-21T20:49:29.140Z,4.90
2018-02-21T20:52:20.418Z,4.90
2018-02-21T20:54:49.688Z,4.90
2018-02-21T20:57:19.692Z,5.00
2018-02-21T20:59:49.134Z,5.00
2018-02-21T21:02:19.481Z,5.00
2018-02-21T21:04:49.404Z,5.00
2018-02-21T21:07:18.223Z,5.00
2018-02-21T21:09:46.941Z,5.00
2018-02-21T21:12:16.267Z,4.90
2018-02-21T21:14:44.773Z,4.90
2018-02-21T21:17:14.004Z,4.90
2018-02-21T21:19:44.320Z,4.90
2018-02-21T21:22:17.125Z,4.90
2018-02-21T21:24:46.482Z,4.90
2018-02-21T21:27:15.737Z,4.90
2018-02-21T21:29:44.191Z,4.90
2018-02-21T21:32:17.044Z,4.80
2018-02-21T21:34:51.211Z,4.80
2018-02-21T21:37:25.576Z,4.80
2018-02-21T21:39:57.784Z,4.80
2018-02-21T21:42:28.939Z,4.70
2018-02-21T21:44:58.910Z,4.80
2018-02-21T21:47:27.867Z,4.80
2018-02-21T21:49:56.177Z,4.80
2018-02-21T21:52:24.456Z,4.80
2018-02-21T21:54:52.783Z,4.70
2018-02-21T21:57:22.990Z,4.70
2018-02-21T21:59:51.333Z,4.80
2018-02-21T22:02:19.662Z,4.80
2018-02-21T22:04:48.940Z,4.80
2018-02-21T22:07:18.943Z,4.90
2018-02-21T22:09:48.881Z,4.90
2018-02-21T22:12:17.225Z,4.90
2018-02-21T22:14:46.682Z,5.00
2018-02-21T22:17:21.651Z,5.00
2018-02-21T22:19:56.994Z,4.90
2018-02-21T22:22:25.317Z,5.00
2018-02-21T22:24:56.811Z,5.00
2018-02-21T22:27:26.542Z,5.00
2018-02-21T22:29:57.245Z,4.90
2018-02-21T22:32:26.306Z,5.00
2018-02-21T22:34:55.791Z,5.00
2018-02-21T22:37:24.568Z,5.00
2018-02-21T22:39:57.362Z,5.00
2018-02-21T22:42:31.726Z,5.00
2018-02-21T22:45:04.492Z,5.00
2018-02-21T22:47:35.691Z,5.10
2018-02-21T22:50:06.606Z,5.00
2018-02-21T22:52:36.650Z,5.00
2018-02-21T22:55:06.020Z,5.00
2018-02-21T22:57:34.309Z,5.00
2018-02-21T23:00:08.188Z,5.00
2018-02-21T23:02:43.541Z,5.00
2018-02-21T23:05:12.601Z,5.00
2018-02-21T23:07:41.656Z,5.00
2018-02-21T23:10:11.350Z,5.00
2018-02-21T23:12:40.652Z,5.00
2018-02-21T23:15:14.761Z,5.00
2018-02-21T23:17:48.172Z,4.90
2018-02-21T23:20:16.910Z,4.80
2018-02-21T23:22:46.192Z,4.80
2018-02-21T23:25:17.010Z,4.80
2018-02-21T23:27:45.318Z,4.80
2018-02-21T23:30:15.833Z,4.70
2018-02-21T23:32:46.221Z,4.70
2018-02-21T23:35:14.567Z,4.70
2018-02-21T23:37:42.840Z,4.70
2018-02-21T23:40:11.689Z,4.70
2018-02-21T23:42:43.684Z,4.70
2018-02-21T23:45:14.896Z,4.70
2018-02-21T23:47:43.446Z,4.70
2018-02-21T23:50:11.746Z,4.70
2018-02-21T23:52:41.474Z,4.70
2018-02-21T23:55:24.373Z,4.70
2018-02-21T23:57:53.539Z,4.60
